Latest Weather Observations for Kilmore Gap

IDV60801

Issued at 10:05 pm EDT Saturday 25 October 2014 (issued every 30 minutes, with the page automatically refreshed every 10 minutes)

About weather observations | Map of weather stations | Latest weather observations for VIC | Other Formats
Station Details ID: 088162 Name: KILMORE GAP Lat: -37.38 Lon: 144.97 Height: 527.8 m
Data from the previous 72 hours. | See also: Recent months at Kilmore Gap
Date/Time
EDT
Temp
°C
App
Temp
°C
Dew
Point
Rel
Hum
%
Delta-T
°C
Wind Press
QNH
hPa
Press
MSL
hPa
Rain
since 9 am
mm
Dir
 
Spd
km/h
Gust
km/h
Spd
kts
Gust
kts
25/10:00pm 9.5 5.2 9.5 100 0.0 S 22 28 12 15 1015.9 - 0.0
25/09:38pm 9.5 5.2 9.5 100 0.0 S 22 30 12 16 1015.9 - 0.0
25/09:30pm 9.5 5.2 9.5 100 0.0 S 22 33 12 18 1015.9 - 0.0
25/09:00pm 9.8 5.2 9.8 100 0.0 S 24 35 13 19 1015.7 1015.6 0.0
25/08:47pm 9.8 5.6 9.8 100 0.0 S 22 32 12 17 1015.6 - 0.0
25/08:30pm 10.0 5.5 10.0 100 0.0 S 24 33 13 18 1015.6 - 0.0
25/08:00pm 10.6 5.8 10.3 98 0.2 S 26 33 14 18 1015.2 - 0.0
25/07:30pm 11.6 7.3 10.7 94 0.5 S 24 35 13 19 1015.2 - 0.0
25/07:00pm 12.7 8.8 10.9 89 1.0 S 22 35 12 19 1015.1 - 0.0
25/06:30pm 14.4 10.3 11.6 83 1.5 S 24 32 13 17 1014.8 - 0.0
25/06:00pm 14.9 11.3 12.0 83 1.6 S 22 33 12 18 1014.8 1014.6 0.0
25/05:30pm 15.2 12.2 11.8 80 1.9 S 19 24 10 13 1014.6 - 0.0
25/05:00pm 16.3 13.2 12.1 76 2.4 S 20 28 11 15 1014.6 - 0.0
25/04:30pm 16.6 14.5 12.4 76 2.4 S 15 22 8 12 1014.6 - 0.0
25/04:00pm 17.1 14.7 12.8 76 2.5 S 17 24 9 13 1014.7 - 0.0
25/03:30pm 17.2 14.9 12.9 76 2.5 S 17 24 9 13 1014.8 - 0.0
25/03:00pm 17.5 15.3 13.4 77 2.4 SSE 17 20 9 11 1014.9 1014.7 0.0
25/02:30pm 18.0 15.8 13.3 74 2.7 S 17 24 9 13 1015.5 - 0.0
25/02:00pm 16.6 14.7 12.9 79 2.1 S 15 20 8 11 1016.1 - 0.0
25/01:30pm 16.1 14.5 12.8 81 1.9 S 13 20 7 11 1016.1 - 0.0
25/01:00pm 16.2 14.7 13.1 82 1.8 S 13 22 7 12 1016.3 - 0.0
25/12:30pm 15.3 12.8 12.4 83 1.6 S 17 24 9 13 1016.7 - 0.0
25/12:00pm 14.9 12.6 12.9 88 1.1 S 17 24 9 13 1017.0 1016.9 0.0
25/11:40am 14.8 11.8 12.1 84 1.5 S 19 30 10 16 1017.1 - 0.0
25/11:30am 14.7 11.8 12.2 85 1.4 S 19 28 10 15 1017.3 - 0.0
25/11:00am 13.2 10.2 12.1 93 0.6 S 19 28 10 15 1017.5 - 0.0
25/10:30am 13.5 11.0 13.5 100 0.0 S 19 26 10 14 1017.4 - 0.0
25/10:00am 11.9 9.6 11.9 100 0.0 S 15 24 8 13 1017.4 - 0.0
25/09:30am 11.3 8.5 11.3 100 0.0 S 17 26 9 14 1017.3 - 0.0
25/09:23am 11.2 8.0 11.2 100 0.0 SSE 19 28 10 15 1017.2 - 0.0
25/09:00am 10.9 8.0 10.9 100 0.0 SSE 17 24 9 13 1017.4 1017.3 0.2
25/08:30am 10.7 8.1 10.7 100 0.0 S 15 20 8 11 1017.4 - 0.2
25/08:00am 10.6 8.0 10.6 100 0.0 S 15 24 8 13 1017.3 - 0.2
25/07:30am 10.5 7.5 10.5 100 0.0 S 17 20 9 11 1017.3 - 0.2
25/07:00am 10.4 7.3 10.4 100 0.0 S 17 22 9 12 1017.0 - 0.2
25/06:30am 10.5 7.5 10.5 100 0.0 S 17 22 9 12 1016.4 - 0.2
25/06:00am 10.6 7.6 10.6 100 0.0 S 17 26 9 14 1016.6 1016.4 0.2
25/05:30am 10.8 7.5 10.8 100 0.0 S 19 24 10 13 1016.3 - 0.0
25/05:00am 11.0 7.5 11.0 100 0.0 S 20 28 11 15 1016.0 - 0.0
25/04:30am 11.1 7.7 11.1 100 0.0 S 20 28 11 15 1016.0 - 0.0
25/04:00am 11.2 7.4 11.2 100 0.0 S 22 33 12 18 1015.9 - 0.0
25/03:30am 11.7 8.6 11.7 100 0.0 S 19 28 10 15 1016.0 - 0.0
25/03:00am 11.8 8.2 11.8 100 0.0 S 22 28 12 15 1016.1 1016.0 0.0
25/02:30am 11.8 8.2 11.8 100 0.0 S 22 30 12 16 1015.9 - 0.0
25/02:00am 11.9 8.9 11.9 100 0.0 S 19 28 10 15 1016.2 - 0.0
25/01:30am 12.0 9.0 12.0 100 0.0 S 19 26 10 14 1016.2 - 0.0
25/01:00am 12.1 9.0 12.1 100 0.0 S 20 26 11 14 1016.6 - 0.0
25/12:30am 12.0 8.8 12.0 100 0.0 S 20 26 11 14 1016.6 - 0.0
25/12:00am 12.2 8.7 12.2 100 0.0 S 22 28 12 15 1016.4 1016.3 0.0
 
Date/Time
EDT
Temp
°C
App
Temp
°C
Dew
Point
Rel
Hum
%
Delta-T
°C
Wind Press
QNH
hPa
Press
MSL
hPa
Rain
since 9 am
mm
Dir
 
Spd
km/h
Gust
km/h
Spd
kts
Gust
kts
24/11:30pm 12.4 9.0 12.4 100 0.0 S 22 32 12 17 1016.7 - 0.0
24/11:00pm 12.5 8.3 12.5 100 0.0 S 26 33 14 18 1016.6 - 0.0
24/10:30pm 12.9 9.3 12.9 100 0.0 S 24 32 13 17 1016.1 - 0.0
24/10:00pm 13.2 10.4 13.2 100 0.0 S 20 24 11 13 1016.1 - 0.0
24/09:46pm 13.4 10.7 13.4 100 0.0 S 20 26 11 14 1016.0 - 0.0
24/09:30pm 13.8 11.1 13.5 98 0.2 S 20 24 11 13 1015.7 - 0.0
24/09:26pm 14.0 11.3 13.5 97 0.3 S 20 26 11 14 1015.7 - 0.0
24/09:00pm 16.5 14.1 12.7 78 2.2 SSE 17 24 9 13 1015.3 1015.2 0.0
24/08:30pm 19.6 17.6 11.4 59 4.6 S 13 15 7 8 1014.6 - 0.0
24/08:00pm 23.5 20.0 5.4 31 9.4 W 13 15 7 8 1014.0 - 0.0
24/07:30pm 23.2 20.2 6.0 33 9.0 W 11 13 6 7 1014.0 - 0.0
24/07:00pm 24.5 21.6 6.3 31 9.6 WNW 11 13 6 7 1013.6 - 0.0
24/06:30pm 24.5 22.1 8.5 36 8.8 NW 11 15 6 8 1013.2 - 0.0
24/06:00pm 25.4 22.4 6.1 29 10.2 WNW 11 17 6 9 1012.9 1012.7 0.0
24/05:30pm 25.7 22.0 6.3 29 10.3 WNW 15 24 8 13 1012.8 - 0.0
24/05:00pm 25.9 23.3 9.3 35 9.3 WNW 13 19 7 10 1012.8 - 0.0
24/04:30pm 25.5 22.5 9.3 36 9.1 WNW 15 20 8 11 1012.8 - 0.0
24/04:00pm 26.4 23.1 10.9 38 8.9 NW 19 28 10 15 1012.8 - 0.0
24/03:30pm 26.0 22.2 9.8 36 9.2 W 20 32 11 17 1013.1 - 0.0
24/03:00pm 26.1 23.1 12.5 42 8.1 W 20 32 11 17 1013.0 1012.8 0.0
24/02:51pm 25.7 23.0 12.9 45 7.6 WNW 19 32 10 17 1013.1 - 0.0
24/02:30pm 25.6 23.5 14.7 51 6.7 WNW 19 26 10 14 1013.3 - 0.0
24/02:00pm 26.5 25.3 16.1 52 6.5 NW 17 22 9 12 1013.5 - 0.0
24/01:37pm 25.3 23.1 15.0 53 6.3 NNW 20 26 11 14 1013.4 - 0.0
24/01:30pm 25.3 23.7 15.0 53 6.3 NNW 17 26 9 14 1013.4 - 0.0
24/01:00pm 24.6 23.2 15.5 57 5.6 NNW 17 26 9 14 1013.5 - 0.0
24/12:30pm 24.1 22.3 15.6 59 5.2 NNW 19 24 10 13 1013.8 - 0.0
24/12:00pm 23.7 21.0 15.5 60 5.0 N 24 33 13 18 1013.8 1013.7 0.0
24/11:30am 22.6 19.2 14.7 61 4.8 N 26 33 14 18 1013.9 - 0.0
24/11:00am 21.9 18.1 14.8 64 4.3 N 28 35 15 19 1013.7 - 0.0
24/10:30am 21.1 16.2 14.3 65 4.1 N 33 43 18 23 1013.5 - 0.0
24/10:00am 20.2 13.9 13.4 65 4.0 N 39 54 21 29 1013.5 - 0.0
24/09:30am 19.3 13.0 13.5 69 3.4 N 39 50 21 27 1013.1 - 0.0
24/09:00am 18.6 12.9 13.0 70 3.2 N 35 46 19 25 1013.3 1013.1 0.2
24/08:30am 17.1 12.0 13.8 81 1.9 N 33 41 18 22 1013.4 - 0.2
24/08:00am 16.3 11.2 13.2 82 1.8 N 32 37 17 20 1013.3 - 0.2
24/07:30am 15.9 11.0 12.6 81 1.9 N 30 35 16 19 1013.2 - 0.2
24/07:00am 15.9 11.0 12.6 81 1.9 NNE 30 33 16 18 1013.0 - 0.2
24/06:30am 15.6 11.9 12.7 83 1.6 NNE 24 30 13 16 1013.1 - 0.2
24/06:00am 15.6 12.8 13.3 86 1.3 NNE 20 24 11 13 1012.9 1012.7 0.2
24/05:30am 14.9 12.7 13.3 90 0.9 NNE 17 20 9 11 1013.1 - 0.2
24/05:00am 15.3 13.6 13.5 89 1.0 NE 15 17 8 9 1013.2 - 0.2
24/04:30am 14.4 12.6 13.3 93 0.6 ENE 15 17 8 9 1013.0 - 0.2
24/04:00am 14.9 13.5 13.4 91 0.9 E 13 15 7 8 1013.2 - 0.2
24/03:30am 14.9 13.9 14.7 99 0.1 ENE 13 17 7 9 1013.3 - 0.2
24/03:00am 14.7 13.4 14.7 100 0.0 E 15 17 8 9 1013.4 1013.3 0.2
24/02:34am 14.8 13.5 14.8 100 0.0 ENE 15 17 8 9 1013.8 - 0.2
24/02:30am 14.4 13.3 14.4 100 0.0 E 13 17 7 9 1013.9 - 0.2
24/02:00am 13.5 13.3 13.5 100 0.0 SSE 7 11 4 6 1014.3 - 0.2
24/01:53am 12.6 11.3 12.6 100 0.0 S 11 13 6 7 1014.4 - 0.2
24/01:30am 12.3 10.2 12.3 100 0.0 SW 15 17 8 9 1014.9 - 0.2
24/01:00am 12.3 10.9 12.3 100 0.0 SSW 11 13 6 7 1015.1 - 0.2
24/12:30am 12.3 10.2 12.3 100 0.0 SW 15 17 8 9 1015.5 - 0.2
24/12:00am 12.4 9.5 12.4 100 0.0 SW 19 22 10 12 1015.8 1015.7 0.2
 
Date/Time
EDT
Temp
°C
App
Temp
°C
Dew
Point
Rel
Hum
%
Delta-T
°C
Wind Press
QNH
hPa
Press
MSL
hPa
Rain
since 9 am
mm
Dir
 
Spd
km/h
Gust
km/h
Spd
kts
Gust
kts
23/11:30pm 12.5 9.7 12.5 100 0.0 SW 19 22 10 12 1015.9 - 0.0
23/11:00pm 12.5 9.5 12.5 100 0.0 SW 20 24 11 13 1016.0 - 0.0
23/10:30pm 12.6 9.2 12.6 100 0.0 SW 22 28 12 15 1016.1 - 0.0
23/10:00pm 12.7 8.6 12.7 100 0.0 SW 26 32 14 17 1016.2 - 0.0
23/09:30pm 12.9 8.9 12.9 100 0.0 SW 26 33 14 18 1016.0 - 0.0
23/09:00pm 13.1 9.5 13.1 100 0.0 SW 24 32 13 17 1015.9 1015.8 0.0
23/08:30pm 13.3 9.4 13.3 100 0.0 SW 26 32 14 17 1015.7 - 0.0
23/08:29pm 13.3 9.4 13.3 100 0.0 SW 26 32 14 17 1015.7 - 0.0
23/08:00pm 13.5 9.3 13.5 100 0.0 SSW 28 37 15 20 1015.7 - 0.0
23/07:30pm 14.1 10.4 13.9 99 0.1 SSW 26 32 14 17 1015.8 - 0.0
23/07:26pm 14.2 10.5 14.0 99 0.1 SSW 26 32 14 17 1015.8 - 0.0
23/07:00pm 15.4 12.9 14.1 92 0.8 SSW 20 30 11 16 1015.8 - 0.0
23/06:51pm 15.7 13.2 14.1 90 0.9 SSW 20 32 11 17 1015.8 - 0.0
23/06:30pm 16.0 13.5 14.2 89 1.0 S 20 30 11 16 1015.8 - 0.0
23/06:00pm 16.5 13.7 14.3 87 1.3 S 22 32 12 17 1015.9 1015.8 0.0
23/05:58pm 16.7 14.0 14.5 87 1.3 S 22 32 12 17 1015.9 - 0.0
23/05:30pm 16.6 13.7 14.1 85 1.5 S 22 32 12 17 1016.1 - 0.0
23/05:00pm 16.9 14.5 14.4 85 1.5 S 20 32 11 17 1016.2 - 0.0
23/04:30pm 17.7 15.5 15.0 84 1.6 S 20 32 11 17 1016.3 - 0.0
23/04:00pm 17.7 14.9 15.3 86 1.4 S 24 32 13 17 1016.6 - 0.0
23/03:30pm 17.2 14.2 14.8 86 1.4 S 24 33 13 18 1016.9 - 0.0
23/03:02pm 17.5 15.2 15.7 89 1.1 S 22 33 12 18 1017.1 - 0.0
23/03:00pm 17.4 15.1 15.6 89 1.1 S 22 33 12 18 1017.1 1017.0 0.0
23/02:30pm 16.1 13.2 15.0 93 0.7 S 24 35 13 19 1017.7 - 0.0
23/02:00pm 15.6 13.6 15.6 100 0.0 S 20 32 11 17 1017.8 - 0.0
23/01:59pm 15.7 13.4 15.7 100 0.0 S 22 33 12 18 1017.8 - 0.0
23/01:30pm 13.9 11.0 13.9 100 0.0 S 22 32 12 17 1018.3 - 0.0
23/01:00pm 13.4 9.9 13.4 100 0.0 S 24 30 13 16 1018.7 - 0.0
23/12:30pm 13.0 10.1 13.0 100 0.0 S 20 28 11 15 1018.8 - 0.0
23/12:00pm 12.8 9.9 12.8 100 0.0 S 20 30 11 16 1019.1 1019.0 0.0
23/11:30am 12.6 9.6 12.6 100 0.0 S 20 28 11 15 1019.5 - 0.0
23/11:00am 12.3 8.8 12.3 100 0.0 S 22 30 12 16 1019.8 - 0.0
23/10:30am 12.2 9.1 12.2 100 0.0 S 20 28 11 15 1020.1 - 0.0
23/10:00am 12.1 9.0 12.1 100 0.0 S 20 28 11 15 1020.0 - 0.0
23/09:30am 12.0 8.4 12.0 100 0.0 S 22 32 12 17 1019.9 - 0.0
23/09:00am 11.9 8.3 11.9 100 0.0 S 22 32 12 17 1020.0 1020.0 0.0
23/08:30am 11.8 8.6 11.8 100 0.0 S 20 30 11 16 1020.1 - 0.0
23/08:00am 11.6 7.9 11.6 100 0.0 S 22 30 12 16 1019.9 - 0.0
23/07:30am 11.4 7.3 11.4 100 0.0 S 24 32 13 17 1019.7 - 0.0
23/07:00am 11.4 7.7 11.4 100 0.0 S 22 30 12 16 1019.3 - 0.0
23/06:30am 11.2 7.8 11.2 100 0.0 S 20 30 11 16 1019.4 - 0.0
23/06:00am 11.1 7.3 11.1 100 0.0 S 22 30 12 16 1019.0 1018.9 0.0
23/05:30am 11.3 7.9 11.3 100 0.0 S 20 32 11 17 1018.7 - 0.0
23/05:00am 11.4 8.0 11.4 100 0.0 S 20 28 11 15 1018.6 - 0.0
23/04:30am 11.6 8.5 11.6 100 0.0 S 19 24 10 13 1018.3 - 0.0
23/04:00am 11.7 8.4 11.7 100 0.0 S 20 28 11 15 1018.6 - 0.0
23/03:30am 11.9 8.3 11.9 100 0.0 S 22 32 12 17 1018.7 - 0.0
23/03:00am 11.9 8.7 11.9 100 0.0 S 20 30 11 16 1018.7 1018.6 0.0
23/02:30am 11.9 8.7 11.9 100 0.0 S 20 26 11 14 1019.1 - 0.0
23/02:00am 11.9 8.9 11.9 100 0.0 SSE 19 24 10 13 1019.4 - 0.0
23/01:30am 11.9 9.3 11.9 100 0.0 SSE 17 20 9 11 1019.4 - 0.0
23/01:21am 11.8 9.1 11.8 100 0.0 SSE 17 22 9 12 1019.3 - 0.0
23/01:00am 11.9 9.3 11.9 100 0.0 SSE 17 22 9 12 1019.4 - 0.0
23/12:34am 12.1 8.5 11.9 99 0.1 S 22 30 12 16 1019.6 - 0.0
23/12:30am 12.2 8.6 12.0 99 0.1 S 22 32 12 17 1019.6 - 0.0
23/12:00am 12.8 9.2 11.7 93 0.6 S 22 28 12 15 1018.9 1018.8 0.0
 
Date/Time
EDT
Temp
°C
App
Temp
°C
Dew
Point
Rel
Hum
%
Delta-T
°C
Wind Press
QNH
hPa
Press
MSL
hPa
Rain
since 9 am
mm
Dir
 
Spd
km/h
Gust
km/h
Spd
kts
Gust
kts
22/11:30pm 15.3 11.6 11.5 78 2.1 S 22 32 12 17 1019.0 - 0.0
22/11:00pm 18.4 16.1 10.5 60 4.4 SE 13 17 7 9 1019.3 - 0.0
22/10:30pm 18.8 17.2 11.4 62 4.2 SSE 11 15 6 8 1019.7 - 0.0

Other Formats:

Comma delimited format used in spreadsheet applications
http://www.bom.gov.au/fwo/IDV60801/IDV60801.94860.axf

JavaScript Object Notation format (JSON) in row-major order
http://www.bom.gov.au/fwo/IDV60801/IDV60801.94860.json